Time;durP1;ratioP1;P1;durP2;ratioP2;P2;SDS_P1;SDS_P2;PMS_P1;PMS_P2;Temp;Humidity;BMP_temperature;BMP_pressure;BME280_temperature;BME280_humidity;BME280_pressure;Samples;Min_cycle;Max_cycle;Signal;HPM_P1;HPM_P2
2023/01/28 00:02:43;;;;;;;42.70;20.40;;;;;;;-1.49;96.97;99440.67;273880;1266;22377;-87
2023/01/28 00:08:45;;;;;;;43.60;20.50;;;;;;;-1.50;97.14;99442.55;273264;1257;22777;-87
2023/01/28 00:14:50;;;;;;;45.00;20.70;;;;;;;-1.49;97.11;99440.03;270654;1267;22623;-86
2023/01/28 00:21:17;;;;;;;39.20;20.40;;;;;;;-1.49;97.13;99438.41;271538;1266;23501;-88
2023/01/28 00:27:19;;;;;;;42.80;19.50;;;;;;;-1.50;97.25;99441.10;273704;1267;22408;-84
2023/01/28 00:33:20;;;;;;;39.50;19.40;;;;;;;-1.50;97.32;99442.94;273657;1266;22399;-85
2023/01/28 00:39:26;;;;;;;46.60;19.90;;;;;;;-1.51;97.28;99448.41;273136;1266;22237;-87
2023/01/28 00:45:28;;;;;;;44.80;20.10;;;;;;;-1.52;97.31;99447.89;273507;1267;22230;-85
2023/01/28 00:51:30;;;;;;;38.60;18.00;;;;;;;-1.52;97.19;99448.86;271236;1263;22297;-85
2023/01/28 00:57:32;;;;;;;44.20;19.00;;;;;;;-1.53;97.39;99448.18;269840;1266;22599;-86
2023/01/28 01:03:35;;;;;;;44.70;21.20;;;;;;;-1.53;97.54;99447.27;272707;1266;25523;-86
2023/01/28 01:09:42;;;;;;;43.00;19.40;;;;;;;-1.51;97.67;99446.39;271341;1267;22555;-85
2023/01/28 01:15:44;;;;;;;45.80;20.10;;;;;;;-1.51;97.49;99449.48;270700;1266;22412;-85
2023/01/28 01:21:49;;;;;;;45.80;20.10;;;;;;;-1.51;97.51;99453.09;271511;1266;22563;-85
2023/01/28 01:27:50;;;;;;;42.20;21.20;;;;;;;-1.49;97.94;99456.63;269974;1259;22586;-85
2023/01/28 01:33:56;;;;;;;41.10;20.10;;;;;;;-1.49;97.99;99461.83;270060;1267;22574;-85
2023/01/28 01:40:03;;;;;;;42.90;21.20;;;;;;;-1.50;97.99;99461.24;269700;1266;24058;-85
2023/01/28 01:46:05;;;;;;;43.70;21.20;;;;;;;-1.51;97.98;99463.95;270051;1253;24188;-86
2023/01/28 01:52:10;;;;;;;43.40;19.90;;;;;;;-1.52;98.09;99466.96;272718;1266;22331;-86
2023/01/28 01:58:15;;;;;;;42.40;20.40;;;;;;;-1.54;98.16;99472.08;272659;1267;22584;-86
2023/01/28 02:04:26;;;;;;;41.60;19.80;;;;;;;-1.52;98.24;99469.49;269968;1266;22600;-85
2023/01/28 02:10:28;;;;;;;44.20;20.40;;;;;;;-1.50;98.49;99471.40;271864;1266;22300;-85
2023/01/28 02:16:30;;;;;;;49.60;22.50;;;;;;;-1.51;98.45;99475.23;273785;1266;23000;-86
2023/01/28 02:22:41;;;;;;;46.00;21.90;;;;;;;-1.51;98.52;99478.33;273869;1266;23244;-86
2023/01/28 02:29:08;;;;;;;50.10;20.80;;;;;;;-1.51;98.43;99477.91;273830;1266;22312;-86
2023/01/28 02:35:16;;;;;;;46.20;20.40;;;;;;;-1.52;98.42;99479.48;273835;1266;22341;-83
2023/01/28 02:41:27;;;;;;;39.60;19.90;;;;;;;-1.52;98.44;99473.58;273443;1266;22301;-85
2023/01/28 02:54:06;;;;;;;38.40;20.00;;;;;;;-1.53;98.40;99480.50;273765;1267;22315;-85
2023/01/28 03:00:20;;;;;;;42.10;20.20;;;;;;;-1.52;98.54;99483.02;273787;1266;22401;-84
2023/01/28 03:06:43;;;;;;;42.50;18.80;;;;;;;-1.52;98.47;99479.27;272968;1266;22531;-85
2023/01/28 03:38:21;;;;;;;46.80;20.00;;;;;;;-1.54;98.92;99472.67;270249;1271;22575;-85
2023/01/28 03:50:46;;;;;;;44.00;20.20;;;;;;;-1.57;98.85;99474.73;269701;1261;22551;-86
2023/01/28 03:56:49;;;;;;;44.20;19.50;;;;;;;-1.58;98.86;99478.77;269236;1270;22563;-86
2023/01/28 04:02:51;;;;;;;40.80;19.90;;;;;;;-1.60;98.84;99483.73;272370;1270;22451;-86
2023/01/28 04:08:58;;;;;;;43.50;18.80;;;;;;;-1.62;98.63;99489.83;272911;1271;22236;-86
2023/01/28 04:15:14;;;;;;;45.60;20.60;;;;;;;-1.62;98.73;99485.84;272858;1256;22848;-86
2023/01/28 04:21:16;;;;;;;43.30;19.50;;;;;;;-1.61;98.75;99487.94;272838;1271;23936;-85
2023/01/28 04:27:19;;;;;;;45.80;21.30;;;;;;;-1.59;99.07;99490.86;269924;1271;22588;-85
2023/01/28 04:33:22;;;;;;;41.00;20.10;;;;;;;-1.57;99.04;99495.36;269696;1271;22540;-86
2023/01/28 04:39:35;;;;;;;45.20;19.60;;;;;;;-1.58;98.96;99498.38;270373;1271;22368;-85
2023/01/28 04:45:52;;;;;;;37.80;18.90;;;;;;;-1.61;98.92;99502.69;272284;1271;22259;-85
2023/01/28 04:52:14;;;;;;;47.50;20.20;;;;;;;-1.61;98.91;99503.38;271286;1271;22615;-84
2023/01/28 04:58:35;;;;;;;42.40;18.70;;;;;;;-1.60;98.95;99502.80;269913;1271;23099;-86
2023/01/28 05:04:42;;;;;;;42.00;19.50;;;;;;;-1.60;99.00;99508.34;272633;1271;22331;-85
2023/01/28 05:10:47;;;;;;;33.60;15.70;;;;;;;-1.58;99.08;99507.61;272846;1271;22360;-85
2023/01/28 05:16:50;;;;;;;41.00;19.50;;;;;;;-1.59;98.93;99510.79;272877;1271;22431;-87
2023/01/28 05:22:53;;;;;;;37.30;17.60;;;;;;;-1.60;98.99;99516.54;272794;1259;22325;-85
2023/01/28 05:28:57;;;;;;;42.90;18.50;;;;;;;-1.61;98.91;99526.71;272540;1271;22357;-85
2023/01/28 05:35:03;;;;;;;37.30;16.70;;;;;;;-1.61;98.93;99529.48;272783;1271;22195;-85
2023/01/28 05:41:05;;;;;;;42.70;18.20;;;;;;;-1.59;98.91;99531.73;272704;1271;22967;-85
2023/01/28 05:47:09;;;;;;;41.00;17.40;;;;;;;-1.58;98.84;99535.27;271751;1270;22890;-85
2023/01/28 05:53:21;;;;;;;38.30;16.90;;;;;;;-1.61;98.70;99535.30;271379;1271;23084;-85
2023/01/28 05:59:24;;;;;;;37.70;18.00;;;;;;;-1.62;98.70;99536.91;272842;1271;22191;-86
2023/01/28 06:05:30;;;;;;;38.30;18.60;;;;;;;-1.60;98.89;99546.14;272958;1272;23158;-85
2023/01/28 06:11:32;;;;;;;38.40;17.90;;;;;;;-1.60;98.93;99551.77;272048;1262;22429;-87
2023/01/28 06:17:38;;;;;;;37.10;17.10;;;;;;;-1.60;98.88;99561.85;269914;1271;23439;-84
2023/01/28 06:23:43;;;;;;;37.10;17.50;;;;;;;-1.62;98.79;99568.95;270324;1270;22306;-85
2023/01/28 06:29:45;;;;;;;41.40;18.30;;;;;;;-1.63;98.82;99578.16;269977;1272;22645;-85
2023/01/28 06:35:47;;;;;;;33.80;16.00;;;;;;;-1.62;98.94;99589.41;271598;1272;22494;-85
2023/01/28 06:41:49;;;;;;;39.10;17.30;;;;;;;-1.64;98.87;99597.16;272600;1270;22580;-84
2023/01/28 06:47:53;;;;;;;36.90;16.70;;;;;;;-1.62;98.78;99598.86;270528;1267;22562;-85
2023/01/28 06:53:57;;;;;;;36.20;15.90;;;;;;;-1.59;98.92;99598.85;271647;1272;22354;-85
2023/01/28 07:00:00;;;;;;;38.40;16.00;;;;;;;-1.59;98.74;99611.52;271084;1271;22568;-85
2023/01/28 07:06:03;;;;;;;34.50;15.50;;;;;;;-1.59;98.67;99616.57;270077;1265;22537;-84
2023/01/28 07:12:09;;;;;;;32.90;17.20;;;;;;;-1.57;98.84;99619.17;271099;1271;22340;-86
2023/01/28 07:18:11;;;;;;;34.00;16.40;;;;;;;-1.56;98.69;99624.65;272989;1271;22337;-85
2023/01/28 07:24:13;;;;;;;31.80;14.90;;;;;;;-1.53;98.83;99627.42;269946;1270;22676;-85
2023/01/28 07:30:17;;;;;;;32.60;14.40;;;;;;;-1.48;98.95;99631.95;271947;1271;22599;-86
2023/01/28 07:36:19;;;;;;;29.90;14.00;;;;;;;-1.48;98.75;99640.54;272925;1271;22330;-86
2023/01/28 07:42:21;;;;;;;28.20;14.20;;;;;;;-1.49;98.57;99644.95;271860;1271;22406;-86
2023/01/28 07:48:23;;;;;;;26.80;12.50;;;;;;;-1.47;98.60;99645.63;272471;1271;22384;-86
2023/01/28 07:54:26;;;;;;;27.70;12.50;;;;;;;-1.45;98.67;99643.84;272710;1271;22226;-86
2023/01/28 08:00:39;;;;;;;30.90;13.00;;;;;;;-1.40;98.58;99644.02;272943;1271;23086;-87
2023/01/28 08:06:41;;;;;;;33.80;13.60;;;;;;;-1.34;98.36;99645.16;271773;1262;23627;-87
2023/01/28 08:12:57;;;;;;;25.50;13.40;;;;;;;-1.31;98.43;99643.94;272049;1270;216275;-86
2023/01/28 08:18:59;;;;;;;;;;;;;;;-1.27;98.41;99649.22;269900;1265;22532;-86
2023/01/28 08:25:01;;;;;;;26.80;13.00;;;;;;;-1.25;98.36;99650.28;269026;1268;22552;-86
2023/01/28 08:31:03;;;;;;;26.30;12.80;;;;;;;-1.24;98.26;99655.70;268597;1261;22560;-86
2023/01/28 08:37:05;;;;;;;28.80;13.40;;;;;;;-1.24;98.24;99655.48;269642;1271;22336;-87
2023/01/28 08:43:07;;;;;;;29.90;13.90;;;;;;;-1.26;98.01;99662.86;269248;1271;23291;-88
2023/01/28 08:49:08;;;;;;;26.60;13.30;;;;;;;-1.29;98.00;99666.17;272112;1271;25340;-87
2023/01/28 08:55:11;;;;;;;37.80;15.10;;;;;;;-1.27;98.20;99667.70;269542;1269;22568;-86
2023/01/28 09:01:13;;;;;;;32.60;15.50;;;;;;;-1.24;98.19;99673.69;269942;1271;23876;-87
2023/01/28 09:07:15;;;;;;;31.10;13.60;;;;;;;-1.21;98.19;99677.48;268927;1270;23292;-86
2023/01/28 09:13:16;;;;;;;22.00;10.80;;;;;;;-1.17;97.96;99685.34;269118;1260;22631;-86
2023/01/28 09:19:18;;;;;;;24.30;11.40;;;;;;;-1.14;97.74;99684.62;270164;1270;22366;-87
2023/01/28 09:25:20;;;;;;;30.30;13.10;;;;;;;-1.11;97.91;99681.05;272813;1271;22362;-87
2023/01/28 09:31:22;;;;;;;31.40;12.90;;;;;;;-1.09;97.67;99679.42;270893;1271;23257;-86
2023/01/28 09:37:24;;;;;;;21.00;10.80;;;;;;;-1.08;97.54;99681.20;271888;1271;22194;-86
2023/01/28 09:43:40;;;;;;;23.90;12.50;;;;;;;-1.08;97.40;99684.52;271077;1271;22459;-86
2023/01/28 09:49:46;;;;;;;21.70;9.70;;;;;;;-1.06;97.39;99681.23;272792;1269;23387;-86
2023/01/28 09:55:54;;;;;;;22.70;8.80;;;;;;;-1.06;97.19;99681.55;272619;1264;22421;-86
2023/01/28 10:02:11;;;;;;;22.80;11.10;;;;;;;-1.08;97.24;99687.80;270342;1271;22593;-86
2023/01/28 10:08:37;;;;;;;28.20;15.00;;;;;;;-1.08;97.14;99683.99;272480;1271;22817;-86
2023/01/28 10:14:45;;;;;;;40.40;17.20;;;;;;;-1.06;97.10;99681.38;271682;1271;22538;-87
2023/01/28 10:20:54;;;;;;;21.60;11.10;;;;;;;-1.03;97.09;99675.42;269805;1271;22808;-87
2023/01/28 10:26:56;;;;;;;22.20;11.60;;;;;;;-1.00;97.04;99678.33;269311;1271;23845;-86
2023/01/28 10:33:03;;;;;;;32.80;15.80;;;;;;;-0.96;97.11;99674.78;270108;1271;22359;-86
2023/01/28 10:39:06;;;;;;;23.70;10.90;;;;;;;-0.90;97.03;99677.42;272708;1271;22365;-85
2023/01/28 10:45:29;;;;;;;26.50;12.40;;;;;;;-0.85;96.89;99670.91;272567;1271;23052;-86
2023/01/28 10:51:34;;;;;;;22.40;11.30;;;;;;;-0.81;96.85;99669.80;272126;1270;22232;-84
2023/01/28 10:57:40;;;;;;;28.20;13.00;;;;;;;-0.73;96.83;99669.51;271370;1269;22271;-86
2023/01/28 11:03:52;;;;;;;15.10;8.70;;;;;;;-0.72;96.83;99665.89;271879;1259;23112;-85
2023/01/28 11:09:54;;;;;;;18.60;9.60;;;;;;;-0.77;96.76;99665.03;270642;1271;22614;-86
2023/01/28 11:16:02;;;;;;;27.20;12.00;;;;;;;-0.82;96.55;99667.40;269066;1271;23234;-85
2023/01/28 11:22:04;;;;;;;33.20;15.50;;;;;;;-0.90;96.38;99671.34;272069;1271;22354;-86
2023/01/28 11:28:16;;;;;;;20.10;10.10;;;;;;;-0.93;96.41;99669.38;272803;1271;22208;-86
2023/01/28 11:34:19;;;;;;;22.90;10.60;;;;;;;-0.94;96.39;99666.60;269203;1271;22203;-85
2023/01/28 11:40:21;;;;;;;21.30;10.50;;;;;;;-0.96;96.37;99661.13;271948;1271;23047;-86
2023/01/28 11:46:53;;;;;;;24.80;12.50;;;;;;;-0.94;96.37;99654.34;272613;1271;22471;-86
2023/01/28 11:53:46;;;;;;;18.90;10.10;;;;;;;-0.92;96.28;99658.63;272851;1271;22513;-86
2023/01/28 12:00:23;;;;;;;22.40;11.40;;;;;;;-0.94;96.15;99652.41;272711;1271;22313;-86
2023/01/28 12:06:50;;;;;;;23.00;12.30;;;;;;;-0.92;96.16;99657.87;272790;1273;22315;-86
2023/01/28 12:13:10;;;;;;;30.60;13.80;;;;;;;-0.90;95.91;99657.54;272696;1270;23520;-87
2023/01/28 12:19:43;;;;;;;20.00;10.60;;;;;;;-0.84;95.96;99652.31;272749;1271;22338;-86
2023/01/28 12:26:03;;;;;;;23.40;11.40;;;;;;;-0.82;95.70;99651.75;272741;1270;22285;-86
2023/01/28 12:32:38;;;;;;;22.70;11.60;;;;;;;-0.81;95.55;99655.23;271779;1270;22716;-86
2023/01/28 12:38:52;;;;;;;23.10;11.60;;;;;;;-0.81;95.54;99657.92;269738;1271;22455;-86
2023/01/28 12:45:11;;;;;;;27.20;13.40;;;;;;;-0.85;95.57;99658.55;269955;1270;22572;-86
2023/01/28 12:51:20;;;;;;;27.90;13.70;;;;;;;-0.84;95.37;99658.33;271817;1271;22228;-87
2023/01/28 12:57:25;;;;;;;30.00;15.30;;;;;;;-0.84;95.45;99657.42;270887;1271;22552;-86
2023/01/28 13:03:35;;;;;;;31.60;15.50;;;;;;;-0.88;95.35;99662.66;270844;1271;25635;-86
2023/01/28 13:09:42;;;;;;;32.00;14.70;;;;;;;-0.90;95.36;99667.14;269524;1270;22570;-86
2023/01/28 13:15:45;;;;;;;36.40;15.80;;;;;;;-0.88;95.43;99670.37;269011;1270;23900;-86
2023/01/28 13:21:48;;;;;;;86.20;25.20;;;;;;;-0.92;95.37;99673.63;270303;1272;22373;-87
2023/01/28 13:27:59;;;;;;;35.40;15.80;;;;;;;-0.92;95.47;99680.55;269655;1271;22572;-86
2023/01/28 13:34:03;;;;;;;32.30;16.00;;;;;;;-0.87;95.33;99680.61;270187;1271;22541;-86
2023/01/28 13:40:22;;;;;;;34.20;14.50;;;;;;;-0.85;95.30;99680.92;269311;1264;25451;-86
2023/01/28 13:46:28;;;;;;;28.60;14.50;;;;;;;-0.80;95.23;99682.84;269832;1263;22614;-86
2023/01/28 13:52:44;;;;;;;28.00;14.10;;;;;;;-0.77;95.08;99688.63;269147;1271;23137;-86
2023/01/28 13:58:59;;;;;;;27.90;13.60;;;;;;;-0.73;95.17;99689.66;271126;1271;22357;-87
2023/01/28 14:05:21;;;;;;;33.30;13.20;;;;;;;-0.72;95.03;99694.89;271257;1270;22566;-86
2023/01/28 14:11:25;;;;;;;30.00;15.30;;;;;;;-0.73;94.75;99696.70;270931;1270;22322;-87
2023/01/28 14:17:40;;;;;;;29.00;13.70;;;;;;;-0.70;94.72;99700.42;272962;1270;22278;-87
2023/01/28 14:23:47;;;;;;;26.70;13.50;;;;;;;-0.71;94.50;99700.02;272866;1262;22328;-87
2023/01/28 14:30:19;;;;;;;31.80;14.40;;;;;;;-0.74;94.52;99709.68;271506;1272;27829;-87
2023/01/28 14:36:20;;;;;;;36.00;17.10;;;;;;;-0.73;94.47;99710.64;269484;1271;22548;-87
2023/01/28 14:42:25;;;;;;;30.50;13.80;;;;;;;-0.70;94.66;99714.05;270425;1271;22598;-87
2023/01/28 14:48:44;;;;;;;30.70;13.80;;;;;;;-0.73;94.21;99712.85;272723;1270;22326;-86
2023/01/28 14:54:50;;;;;;;29.30;13.20;;;;;;;-0.75;94.47;99717.38;272804;1270;22545;-87
2023/01/28 15:00:54;;;;;;;24.00;12.10;;;;;;;-0.72;94.34;99720.79;269967;1270;22834;-86
2023/01/28 15:07:01;;;;;;;25.50;12.40;;;;;;;-0.76;94.00;99720.73;271054;1270;22490;-87
2023/01/28 15:13:10;;;;;;;;;;;;;;;-0.80;93.84;99729.85;270719;1262;22511;-88
2023/01/28 15:19:11;;;;;;;27.20;11.40;;;;;;;-0.79;93.93;99737.96;269784;1270;23561;-88
2023/01/28 15:25:21;;;;;;;26.50;12.20;;;;;;;-0.79;93.94;99745.31;269483;1260;22610;-87
2023/01/28 15:31:28;;;;;;;25.30;12.00;;;;;;;-0.77;94.11;99749.23;269808;1270;22584;-86
2023/01/28 15:37:30;;;;;;;29.30;12.80;;;;;;;-0.74;94.17;99754.84;270362;1256;22985;-87
2023/01/28 15:43:35;;;;;;;27.70;13.60;;;;;;;-0.78;94.12;99756.27;271986;1270;22359;-88
2023/01/28 15:49:41;;;;;;;25.10;12.50;;;;;;;-0.79;94.25;99760.64;272628;1264;22537;-87
2023/01/28 15:55:43;;;;;;;30.20;14.10;;;;;;;-0.77;94.40;99763.20;272510;1258;22340;-87
2023/01/28 16:01:45;;;;;;;28.10;13.50;;;;;;;-0.76;94.34;99769.45;272447;1271;22411;-88
2023/01/28 16:07:47;;;;;;;27.80;13.50;;;;;;;-0.80;94.18;99777.38;271200;1271;22572;-86
2023/01/28 16:13:49;;;;;;;31.00;14.70;;;;;;;-0.82;94.45;99771.90;269677;1270;22572;-86
2023/01/28 16:20:06;;;;;;;32.90;15.80;;;;;;;-0.81;94.70;99773.23;269233;1270;22671;-86
2023/01/28 16:26:22;;;;;;;;;;;;;;;-0.79;94.93;99773.92;270847;1270;22540;-87
2023/01/28 16:32:26;;;;;;;34.00;16.30;;;;;;;-0.82;94.98;99778.41;270865;1266;22355;-87
2023/01/28 16:38:29;;;;;;;40.50;16.50;;;;;;;-0.84;95.30;99782.95;269478;1271;22653;-87
2023/01/28 16:44:31;;;;;;;42.80;18.00;;;;;;;-0.83;95.64;99780.46;269266;1271;24972;-88
2023/01/28 16:50:33;;;;;;;45.00;20.20;;;;;;;-0.84;95.66;99783.27;268786;1270;22582;-87
2023/01/28 16:56:35;;;;;;;47.20;20.70;;;;;;;-0.86;95.63;99790.92;269092;1270;22257;-88
2023/01/28 17:02:37;;;;;;;49.40;22.60;;;;;;;-0.87;95.65;99797.55;270711;1265;22365;-87
2023/01/28 17:08:39;;;;;;;46.50;20.60;;;;;;;-0.87;95.85;99800.98;271544;1270;23946;-87
2023/01/28 17:14:41;;;;;;;47.20;21.00;;;;;;;-0.87;95.75;99805.88;269866;1271;22563;-88
2023/01/28 17:20:44;;;;;;;51.20;23.60;;;;;;;-0.85;96.05;99804.84;272766;1270;22210;-88
2023/01/28 17:26:50;;;;;;;50.20;24.90;;;;;;;-0.84;96.01;99804.19;272089;1270;22218;-89
2023/01/28 17:32:53;;;;;;;48.10;19.40;;;;;;;-0.85;95.93;99803.39;272710;1271;22735;-88
2023/01/28 17:38:55;;;;;;;64.70;29.70;;;;;;;-0.90;95.86;99804.39;272646;1270;22426;-87
2023/01/28 17:45:01;;;;;;;59.60;28.30;;;;;;;-0.90;96.18;99801.38;272619;1270;23015;-89
2023/01/28 17:51:03;;;;;;;75.90;36.40;;;;;;;-0.89;96.35;99808.43;272581;1267;22460;-87
2023/01/28 17:57:05;;;;;;;68.30;31.30;;;;;;;-0.90;96.49;99815.09;272797;1270;22689;-89
2023/01/28 18:03:11;;;;;;;99.20;48.30;;;;;;;-0.91;96.41;99816.08;265113;1270;10001387;-89
2023/01/28 18:09:22;;;;;;;62.40;29.40;;;;;;;-0.91;96.78;99821.54;272570;1271;22428;-88
2023/01/28 18:15:24;;;;;;;63.60;27.10;;;;;;;-0.91;97.09;99828.09;272737;1271;23053;-88
2023/01/28 18:21:35;;;;;;;63.80;29.00;;;;;;;-0.91;97.00;99838.54;272762;1270;22437;-89
2023/01/28 18:27:37;;;;;;;65.80;28.90;;;;;;;-0.92;97.17;99840.73;272726;1270;22332;-89
2023/01/28 18:33:39;;;;;;;81.50;33.90;;;;;;;-0.95;97.39;99841.35;271792;1271;22990;-88
2023/01/28 18:39:41;;;;;;;59.40;29.60;;;;;;;-0.97;97.46;99849.06;272413;1271;22225;-88
2023/01/28 18:45:49;;;;;;;60.80;27.30;;;;;;;-0.98;97.76;99845.85;272634;1260;22806;-90
2023/01/28 18:51:51;;;;;;;62.80;28.10;;;;;;;-0.97;97.84;99842.77;272671;1271;22233;-89
2023/01/28 18:57:55;;;;;;;66.20;30.00;;;;;;;-0.98;97.98;99838.65;271888;1271;22573;-88
2023/01/28 19:03:58;;;;;;;63.70;28.10;;;;;;;-0.97;98.19;99843.25;270013;1271;22452;-87
2023/01/28 19:10:00;;;;;;;71.40;30.70;;;;;;;-0.96;98.50;99850.39;272853;1258;22327;-89
2023/01/28 19:16:03;;;;;;;77.00;31.50;;;;;;;-0.96;98.74;99843.04;270848;1271;22563;-89
2023/01/28 19:22:05;;;;;;;70.00;31.20;;;;;;;-0.96;98.77;99853.55;270795;1271;22351;-89
2023/01/28 19:28:07;;;;;;;81.10;33.80;;;;;;;-0.98;98.88;99862.08;270593;1270;22564;-87
2023/01/28 19:34:10;;;;;;;74.00;34.00;;;;;;;-0.97;99.25;99859.59;270489;1271;22517;-87
2023/01/28 19:40:15;;;;;;;79.10;35.50;;;;;;;-0.96;99.34;99864.05;272343;1270;23866;-87
2023/01/28 19:46:18;;;;;;;80.30;34.70;;;;;;;-0.97;99.38;99865.08;271650;1269;23806;-86
2023/01/28 19:52:20;;;;;;;68.10;32.50;;;;;;;-0.97;99.58;99867.54;271376;1269;22362;-88
2023/01/28 19:58:22;;;;;;;75.20;33.80;;;;;;;-0.99;99.55;99872.45;272792;1271;22550;-88
2023/01/28 20:04:26;;;;;;;76.80;36.20;;;;;;;-0.99;99.71;99876.70;270181;1270;22693;-87
2023/01/28 20:10:31;;;;;;;86.70;37.40;;;;;;;-0.99;99.66;99881.86;272131;1270;22402;-88
2023/01/28 20:16:36;;;;;;;93.50;38.50;;;;;;;-0.97;99.85;99883.63;273011;1271;177178;-88
2023/01/28 20:22:40;;;;;;;93.40;36.70;;;;;;;-0.98;99.83;99883.19;272187;1269;22545;-88
2023/01/28 20:28:42;;;;;;;89.30;39.50;;;;;;;-1.02;99.78;99884.35;270488;1269;22658;-88
2023/01/28 20:34:44;;;;;;;93.70;41.80;;;;;;;-1.04;99.77;99883.77;270747;1270;23272;-88
2023/01/28 20:40:46;;;;;;;83.60;37.70;;;;;;;-1.04;99.94;99884.30;272337;1270;22449;-88
2023/01/28 20:46:48;;;;;;;90.40;42.20;;;;;;;-1.02;100.00;99883.33;271897;1269;22571;-87
2023/01/28 20:52:52;;;;;;;106.80;45.10;;;;;;;-1.03;99.97;99881.61;271334;1269;24085;-88
2023/01/28 20:59:02;;;;;;;95.50;43.00;;;;;;;-1.01;100.00;99889.92;272042;1269;22329;-88
2023/01/28 21:05:05;;;;;;;96.60;42.50;;;;;;;-0.99;99.97;99885.41;272292;1269;22468;-88
2023/01/28 21:11:07;;;;;;;97.00;43.20;;;;;;;-1.03;99.97;99894.61;272225;1270;22483;-88
2023/01/28 21:17:09;;;;;;;102.50;43.90;;;;;;;-1.03;100.00;99893.97;272196;1270;22520;-89
2023/01/28 21:23:14;;;;;;;101.90;44.60;;;;;;;-1.02;100.00;99894.88;272289;1270;22422;-88
2023/01/28 21:29:17;;;;;;;98.50;45.30;;;;;;;-0.97;100.00;99906.30;272322;1270;22428;-87
2023/01/28 21:35:19;;;;;;;95.40;44.50;;;;;;;-0.97;100.00;99902.00;272261;1270;22451;-87
2023/01/28 21:41:21;;;;;;;103.70;46.40;;;;;;;-0.98;100.00;99904.21;272517;1269;23435;-87
2023/01/28 21:47:23;;;;;;;100.20;47.50;;;;;;;-0.93;100.00;99906.05;272356;1270;23037;-87
2023/01/28 21:53:25;;;;;;;111.50;50.50;;;;;;;-0.89;100.00;99914.16;272385;1269;22185;-88
2023/01/28 21:59:27;;;;;;;105.30;48.30;;;;;;;-0.93;100.00;99920.42;272460;1270;22388;-87
2023/01/28 22:05:30;;;;;;;88.90;44.20;;;;;;;-0.93;100.00;99926.92;272334;1269;23205;-88
2023/01/28 22:11:32;;;;;;;101.20;45.90;;;;;;;-0.97;100.00;99919.11;272405;1270;22550;-88
2023/01/28 22:17:34;;;;;;;87.00;41.50;;;;;;;-0.96;100.00;99911.84;272436;1270;22175;-88
2023/01/28 22:23:37;;;;;;;87.90;39.60;;;;;;;-0.95;100.00;99903.23;272424;1269;22327;-88
2023/01/28 22:29:39;;;;;;;76.60;36.20;;;;;;;-0.93;100.00;99903.00;272423;1269;22420;-88
2023/01/28 22:35:41;;;;;;;76.80;35.60;;;;;;;-0.93;100.00;99909.29;272539;1269;24269;-88
2023/01/28 22:41:43;;;;;;;74.30;36.80;;;;;;;-0.95;100.00;99908.98;272291;1267;22423;-89
2023/01/28 22:47:45;;;;;;;64.40;29.00;;;;;;;-0.95;100.00;99905.16;272304;1270;23513;-88
2023/01/28 22:53:48;;;;;;;70.60;32.80;;;;;;;-0.98;100.00;99912.48;271861;1270;22980;-90
2023/01/28 22:59:50;;;;;;;71.80;31.80;;;;;;;-0.97;100.00;99909.48;272004;1269;22367;-89
2023/01/28 23:06:00;;;;;;;78.10;32.60;;;;;;;-0.96;100.00;99905.06;272393;1270;22381;-90
2023/01/28 23:12:01;;;;;;;80.20;34.60;;;;;;;-0.95;100.00;99909.95;272279;1269;23152;-86
2023/01/28 23:24:50;;;;;;;71.60;32.70;;;;;;;-0.95;100.00;99915.96;271441;1275;22374;-88
2023/01/28 23:30:52;;;;;;;65.30;30.70;;;;;;;-0.96;100.00;99908.77;272430;1262;23654;-88
2023/01/28 23:36:54;;;;;;;71.00;31.40;;;;;;;-0.96;100.00;99904.31;272671;1269;23288;-88
2023/01/28 23:42:57;;;;;;;74.10;32.30;;;;;;;-0.96;100.00;99894.38;272323;1270;24026;-87
2023/01/28 23:48:59;;;;;;;71.10;31.20;;;;;;;-0.99;100.00;99888.10;272562;1269;23042;-88
2023/01/28 23:55:02;;;;;;;73.80;33.30;;;;;;;-0.99;100.00;99890.09;272490;1270;23297;-89
